Time;durP1;ratioP1;P1;durP2;ratioP2;P2;SDS_P1;SDS_P2;PMS_P1;PMS_P2;Temp;Humidity;BMP_temperature;BMP_pressure;BME280_temperature;BME280_humidity;BME280_pressure;Samples;Min_cycle;Max_cycle;Signal;HPM_P1;HPM_P2
2023/03/11 00:01:05;;;;;;;3.88;1.63;;;;;;;;;;5031019;28;20056;-65
2023/03/11 00:03:30;;;;;;;5.70;1.63;;;;;;;;;;5030681;28;20022;-62
2023/03/11 00:05:59;;;;;;;4.05;1.55;;;;;;;;;;5030960;28;20053;-63
2023/03/11 00:08:27;;;;;;;2.72;1.10;;;;;;;;;;5029777;28;20029;-65
2023/03/11 00:10:54;;;;;;;2.72;1.52;;;;;;;;;;5030212;28;20033;-63
2023/03/11 00:13:20;;;;;;;4.35;1.45;;;;;;;;;;5030197;28;20060;-62
2023/03/11 00:15:47;;;;;;;3.78;1.45;;;;;;;;;;5030509;28;20037;-63
2023/03/11 00:18:14;;;;;;;2.88;1.30;;;;;;;;;;5031144;28;20025;-63
2023/03/11 00:20:42;;;;;;;3.95;1.95;;;;;;;;;;5030024;28;20041;-63
2023/03/11 00:23:08;;;;;;;4.47;1.75;;;;;;;;;;5030872;28;20377;-63
2023/03/11 00:25:35;;;;;;;3.47;1.30;;;;;;;;;;5030565;28;20041;-63
2023/03/11 00:28:02;;;;;;;5.03;1.70;;;;;;;;;;5030356;28;20018;-63
2023/03/11 00:30:28;;;;;;;4.95;1.38;;;;;;;;;;5030496;28;20036;-64
2023/03/11 00:32:55;;;;;;;3.30;1.30;;;;;;;;;;5030711;28;20030;-65
2023/03/11 00:35:23;;;;;;;6.10;1.90;;;;;;;;;;5030565;28;20029;-64
2023/03/11 00:37:52;;;;;;;2.90;1.20;;;;;;;;;;5033484;28;20032;-62
2023/03/11 00:40:19;;;;;;;4.50;1.90;;;;;;;;;;5034539;28;20021;-64
2023/03/11 00:42:45;;;;;;;3.67;1.60;;;;;;;;;;5034255;28;20498;-62
2023/03/11 00:45:11;;;;;;;4.28;1.73;;;;;;;;;;5034792;28;20475;-62
2023/03/11 00:47:38;;;;;;;2.58;1.33;;;;;;;;;;5034306;28;20051;-62
2023/03/11 00:50:04;;;;;;;3.00;1.13;;;;;;;;;;5034532;28;20441;-63
2023/03/11 00:52:30;;;;;;;2.42;1.40;;;;;;;;;;5034203;28;20033;-63
2023/03/11 00:54:57;;;;;;;4.22;1.75;;;;;;;;;;5034464;28;20033;-64
2023/03/11 00:57:23;;;;;;;3.35;1.33;;;;;;;;;;5033867;28;20036;-64
2023/03/11 00:59:50;;;;;;;2.22;1.08;;;;;;;;;;5034375;28;20053;-64
2023/03/11 01:02:16;;;;;;;3.35;1.33;;;;;;;;;;5034037;28;20033;-64
2023/03/11 01:04:41;;;;;;;3.05;1.50;;;;;;;;;;5034389;28;20021;-63
2023/03/11 01:07:07;;;;;;;3.15;1.35;;;;;;;;;;5034172;28;20029;-62
2023/03/11 01:09:33;;;;;;;3.80;1.42;;;;;;;;;;5033392;28;20399;-63
2023/03/11 01:11:59;;;;;;;4.63;1.67;;;;;;;;;;5034228;28;20119;-64
2023/03/11 01:14:25;;;;;;;3.17;1.50;;;;;;;;;;5033957;28;20035;-62
2023/03/11 01:16:52;;;;;;;3.85;1.70;;;;;;;;;;5034029;28;20505;-63
2023/03/11 01:19:18;;;;;;;3.85;1.50;;;;;;;;;;5034027;28;20398;-64
2023/03/11 01:21:44;;;;;;;4.90;1.38;;;;;;;;;;5034029;28;20524;-63
2023/03/11 01:24:10;;;;;;;4.93;1.80;;;;;;;;;;5034053;28;20445;-63
2023/03/11 01:26:36;;;;;;;3.38;1.23;;;;;;;;;;5033160;28;20029;-63
2023/03/11 01:29:03;;;;;;;4.03;1.55;;;;;;;;;;5033807;28;20025;-63
2023/03/11 01:31:28;;;;;;;3.10;1.58;;;;;;;;;;5033435;28;20125;-63
2023/03/11 01:33:54;;;;;;;4.57;1.70;;;;;;;;;;5033843;28;20101;-63
2023/03/11 01:36:20;;;;;;;4.60;1.48;;;;;;;;;;5033456;28;20493;-62
2023/03/11 01:38:46;;;;;;;2.47;1.40;;;;;;;;;;5033188;28;20037;-62
2023/03/11 01:41:12;;;;;;;4.07;1.48;;;;;;;;;;5033922;28;20486;-62
2023/03/11 01:43:44;;;;;;;3.45;1.70;;;;;;;;;;5033316;28;20084;-62
2023/03/11 01:46:29;;;;;;;4.05;2.03;;;;;;;;;;5033772;28;20033;-62
2023/03/11 01:48:56;;;;;;;3.53;1.50;;;;;;;;;;5032917;28;20482;-63
2023/03/11 01:51:34;;;;;;;3.13;1.73;;;;;;;;;;5033165;28;20037;-63
2023/03/11 01:54:02;;;;;;;2.97;1.60;;;;;;;;;;5032848;28;20439;-63
2023/03/11 01:56:28;;;;;;;2.90;1.42;;;;;;;;;;5033133;28;20113;-62
2023/03/11 01:58:54;;;;;;;3.35;1.60;;;;;;;;;;5033487;28;20029;-62
2023/03/11 02:01:21;;;;;;;3.92;1.90;;;;;;;;;;5032962;28;20512;-62
2023/03/11 02:03:48;;;;;;;3.72;1.60;;;;;;;;;;5033305;28;20362;-62
2023/03/11 02:06:16;;;;;;;2.92;1.50;;;;;;;;;;5032770;28;20036;-62
2023/03/11 02:08:43;;;;;;;3.42;1.65;;;;;;;;;;5032738;28;20034;-62
2023/03/11 02:11:11;;;;;;;3.42;1.80;;;;;;;;;;5032972;28;20409;-62
2023/03/11 02:13:38;;;;;;;4.28;1.58;;;;;;;;;;5032843;28;20104;-62
2023/03/11 02:16:05;;;;;;;4.20;1.80;;;;;;;;;;5033024;28;20057;-62
2023/03/11 02:18:31;;;;;;;3.33;1.90;;;;;;;;;;5032772;28;20022;-62
2023/03/11 02:21:15;;;;;;;2.95;1.70;;;;;;;;;;5032960;28;20387;-63
2023/03/11 02:23:55;;;;;;;4.57;1.80;;;;;;;;;;5032883;28;20037;-62
2023/03/11 02:26:34;;;;;;;3.42;1.73;;;;;;;;;;5032666;28;20112;-62
2023/03/11 02:29:01;;;;;;;3.35;2.03;;;;;;;;;;5032673;28;20371;-62
2023/03/11 02:31:27;;;;;;;5.40;1.92;;;;;;;;;;5032260;28;20041;-62
2023/03/11 02:33:54;;;;;;;3.40;1.75;;;;;;;;;;5032537;28;20021;-62
2023/03/11 02:36:30;;;;;;;2.85;1.80;;;;;;;;;;5032391;28;20493;-62
2023/03/11 02:38:56;;;;;;;4.20;1.90;;;;;;;;;;5032182;28;20057;-63
2023/03/11 02:41:22;;;;;;;4.18;1.85;;;;;;;;;;5032299;28;20053;-62
2023/03/11 02:43:49;;;;;;;3.67;1.85;;;;;;;;;;5032499;28;20033;-62
2023/03/11 02:46:15;;;;;;;3.15;1.73;;;;;;;;;;5032023;28;20440;-62
2023/03/11 02:48:41;;;;;;;4.70;2.05;;;;;;;;;;5032622;28;20052;-62
2023/03/11 02:51:07;;;;;;;3.35;1.80;;;;;;;;;;5032269;28;20501;-62
2023/03/11 02:53:36;;;;;;;2.60;1.50;;;;;;;;;;5031760;28;20033;-62
2023/03/11 02:56:03;;;;;;;4.20;1.90;;;;;;;;;;5032174;28;20028;-62
2023/03/11 02:58:29;;;;;;;4.07;2.00;;;;;;;;;;5031532;28;20032;-62
2023/03/11 03:00:54;;;;;;;3.60;1.95;;;;;;;;;;5031624;28;20386;-62
2023/03/11 03:03:20;;;;;;;3.90;1.90;;;;;;;;;;5031151;28;20025;-62
2023/03/11 03:05:46;;;;;;;4.55;2.03;;;;;;;;;;5032013;28;20036;-62
2023/03/11 03:08:13;;;;;;;4.28;1.90;;;;;;;;;;5031808;28;20433;-62
2023/03/11 03:10:38;;;;;;;5.63;2.30;;;;;;;;;;5031541;28;20076;-63
2023/03/11 03:13:04;;;;;;;3.97;1.90;;;;;;;;;;5031859;28;20075;-62
2023/03/11 03:15:30;;;;;;;3.67;1.92;;;;;;;;;;5031606;28;20033;-62
2023/03/11 03:17:56;;;;;;;3.97;1.77;;;;;;;;;;5031765;28;20425;-62
2023/03/11 03:20:22;;;;;;;3.85;1.92;;;;;;;;;;5031496;28;20071;-62
2023/03/11 03:22:49;;;;;;;4.43;1.90;;;;;;;;;;5031401;28;20474;-62
2023/03/11 03:25:15;;;;;;;3.88;1.80;;;;;;;;;;5031502;28;20048;-62
2023/03/11 03:27:41;;;;;;;5.60;1.80;;;;;;;;;;5032051;28;20095;-62
2023/03/11 03:30:07;;;;;;;3.50;1.77;;;;;;;;;;5031484;28;20029;-62
2023/03/11 03:32:33;;;;;;;2.63;1.85;;;;;;;;;;5031376;28;20029;-61
2023/03/11 03:35:00;;;;;;;4.13;1.73;;;;;;;;;;5031489;28;20032;-62
2023/03/11 03:37:27;;;;;;;4.65;1.83;;;;;;;;;;5030913;28;20044;-62
2023/03/11 03:39:53;;;;;;;3.63;1.88;;;;;;;;;;5031487;28;20497;-62
2023/03/11 03:42:19;;;;;;;3.92;1.70;;;;;;;;;;5031049;28;20105;-62
2023/03/11 03:44:45;;;;;;;5.15;2.03;;;;;;;;;;5031408;28;20029;-62
2023/03/11 03:47:11;;;;;;;4.35;1.90;;;;;;;;;;5031633;28;20075;-62
2023/03/11 03:49:37;;;;;;;3.78;2.33;;;;;;;;;;5031074;28;20018;-62
2023/03/11 03:52:07;;;;;;;4.72;1.73;;;;;;;;;;5030926;28;20560;-62
2023/03/11 03:54:33;;;;;;;3.72;1.83;;;;;;;;;;5031034;28;20022;-61
2023/03/11 03:57:00;;;;;;;3.42;1.85;;;;;;;;;;5031198;28;20429;-62
2023/03/11 03:59:26;;;;;;;5.78;2.35;;;;;;;;;;5031480;28;20022;-61
2023/03/11 04:01:52;;;;;;;5.45;2.42;;;;;;;;;;5030982;28;20071;-62
2023/03/11 04:04:18;;;;;;;3.60;1.83;;;;;;;;;;5030669;28;20045;-62
2023/03/11 04:06:44;;;;;;;3.78;1.80;;;;;;;;;;5030595;28;20120;-61
2023/03/11 04:09:11;;;;;;;3.00;1.67;;;;;;;;;;5031240;28;20124;-61
2023/03/11 04:11:37;;;;;;;5.13;1.92;;;;;;;;;;5030530;28;20038;-61
2023/03/11 04:14:03;;;;;;;2.63;1.70;;;;;;;;;;5031025;28;20025;-61
2023/03/11 04:16:29;;;;;;;3.85;2.00;;;;;;;;;;5030824;28;20490;-61
2023/03/11 04:18:55;;;;;;;4.85;2.00;;;;;;;;;;5030796;28;20068;-62
2023/03/11 04:21:21;;;;;;;3.30;1.83;;;;;;;;;;5030434;28;20112;-61
2023/03/11 04:23:47;;;;;;;4.53;2.17;;;;;;;;;;5030991;28;20025;-62
2023/03/11 04:26:13;;;;;;;3.85;2.10;;;;;;;;;;5030077;28;20021;-61
2023/03/11 04:28:39;;;;;;;3.67;1.88;;;;;;;;;;5031127;28;20025;-61
2023/03/11 04:31:05;;;;;;;4.60;1.80;;;;;;;;;;5030791;28;20105;-61
2023/03/11 04:33:31;;;;;;;2.88;1.60;;;;;;;;;;5030630;28;20449;-61
2023/03/11 04:35:57;;;;;;;4.68;2.08;;;;;;;;;;5030474;28;20390;-62
2023/03/11 04:38:24;;;;;;;4.97;1.80;;;;;;;;;;5030486;28;20028;-61
2023/03/11 04:40:50;;;;;;;3.63;2.30;;;;;;;;;;5030728;28;20057;-61
2023/03/11 04:43:16;;;;;;;3.80;1.70;;;;;;;;;;5030365;28;20508;-61
2023/03/11 04:45:42;;;;;;;4.38;2.10;;;;;;;;;;5031054;28;20113;-61
2023/03/11 04:48:08;;;;;;;3.88;1.88;;;;;;;;;;5030729;28;20029;-61
2023/03/11 04:50:34;;;;;;;3.08;1.75;;;;;;;;;;5029941;28;20521;-61
2023/03/11 04:53:00;;;;;;;3.95;2.20;;;;;;;;;;5030528;28;20021;-61
2023/03/11 04:55:26;;;;;;;4.15;1.77;;;;;;;;;;5030250;28;20029;-62
2023/03/11 04:57:52;;;;;;;5.15;2.15;;;;;;;;;;5030527;28;20032;-61
2023/03/11 05:00:23;;;;;;;3.97;2.05;;;;;;;;;;5030325;28;20028;-61
2023/03/11 05:02:49;;;;;;;5.63;2.17;;;;;;;;;;5030460;28;20063;-61
2023/03/11 05:05:15;;;;;;;3.60;2.05;;;;;;;;;;5029755;28;20513;-61
2023/03/11 05:07:41;;;;;;;4.43;2.25;;;;;;;;;;5030746;28;20025;-61
2023/03/11 05:10:08;;;;;;;3.97;2.15;;;;;;;;;;5029661;28;20383;-61
2023/03/11 05:12:34;;;;;;;4.40;2.10;;;;;;;;;;5030226;28;20405;-61
2023/03/11 05:15:00;;;;;;;3.55;1.95;;;;;;;;;;5030435;28;20087;-61
2023/03/11 05:17:26;;;;;;;4.82;2.13;;;;;;;;;;5030139;28;20044;-61
2023/03/11 05:19:55;;;;;;;3.75;1.92;;;;;;;;;;5030278;28;20021;-61
2023/03/11 05:22:21;;;;;;;5.25;1.92;;;;;;;;;;5030720;28;20025;-61
2023/03/11 05:24:47;;;;;;;4.03;2.17;;;;;;;;;;5033616;28;20075;-61
2023/03/11 05:27:16;;;;;;;4.50;2.10;;;;;;;;;;5033894;28;20108;-61
2023/03/11 05:29:42;;;;;;;4.75;2.38;;;;;;;;;;5033918;28;20105;-61
2023/03/11 05:32:08;;;;;;;3.33;1.90;;;;;;;;;;5033757;28;20072;-62
2023/03/11 05:34:34;;;;;;;3.88;1.83;;;;;;;;;;5033517;28;20026;-61
2023/03/11 05:37:00;;;;;;;4.47;2.00;;;;;;;;;;5033674;28;20036;-61
2023/03/11 05:39:26;;;;;;;4.55;2.17;;;;;;;;;;5033087;28;20554;-61
2023/03/11 05:41:55;;;;;;;4.15;2.28;;;;;;;;;;5033613;28;20029;-61
2023/03/11 05:44:21;;;;;;;3.97;1.98;;;;;;;;;;5033367;28;20029;-61
2023/03/11 05:46:47;;;;;;;3.40;2.05;;;;;;;;;;5033493;28;20112;-61
2023/03/11 05:49:13;;;;;;;4.50;2.38;;;;;;;;;;5033522;28;20028;-62
2023/03/11 05:51:39;;;;;;;3.35;2.03;;;;;;;;;;5033210;28;20041;-61
2023/03/11 05:54:10;;;;;;;4.05;2.03;;;;;;;;;;5033189;28;20032;-61
2023/03/11 05:56:36;;;;;;;4.43;2.05;;;;;;;;;;5032938;28;20131;-61
2023/03/11 05:59:02;;;;;;;5.00;2.67;;;;;;;;;;5033319;28;20021;-61
2023/03/11 06:01:28;;;;;;;3.65;2.17;;;;;;;;;;5032581;28;20394;-61
2023/03/11 06:03:54;;;;;;;5.43;2.33;;;;;;;;;;5033221;28;20033;-61
2023/03/11 06:06:20;;;;;;;4.32;1.90;;;;;;;;;;5032851;28;20080;-61
2023/03/11 06:08:48;;;;;;;4.63;2.40;;;;;;;;;;5033239;28;20025;-61
2023/03/11 06:11:15;;;;;;;4.03;2.00;;;;;;;;;;5032690;28;20416;-61
2023/03/11 06:13:41;;;;;;;3.95;1.63;;;;;;;;;;5032992;28;20474;-61
2023/03/11 06:16:07;;;;;;;3.63;1.70;;;;;;;;;;5032584;28;20037;-61
2023/03/11 06:18:33;;;;;;;3.70;2.28;;;;;;;;;;5032820;28;20025;-61
2023/03/11 06:21:00;;;;;;;4.32;1.90;;;;;;;;;;5032911;28;20111;-61
2023/03/11 06:23:26;;;;;;;2.83;1.67;;;;;;;;;;5032721;28;20030;-61
2023/03/11 06:26:12;;;;;;;3.05;1.60;;;;;;;;;;5032885;28;20029;-61
2023/03/11 06:28:38;;;;;;;3.17;2.05;;;;;;;;;;5032557;28;20756;-61
2023/03/11 06:31:15;;;;;;;3.67;2.17;;;;;;;;;;5032349;28;20534;-61
2023/03/11 06:33:41;;;;;;;4.30;2.67;;;;;;;;;;5032651;28;20493;-61
2023/03/11 06:36:07;;;;;;;4.55;2.30;;;;;;;;;;5032747;28;20100;-61
2023/03/11 06:38:33;;;;;;;3.42;1.75;;;;;;;;;;5032374;28;20026;-61
2023/03/11 06:41:04;;;;;;;5.18;2.35;;;;;;;;;;5031894;28;20519;-61
2023/03/11 06:43:30;;;;;;;4.72;2.03;;;;;;;;;;5031902;28;20029;-61
2023/03/11 06:45:56;;;;;;;3.35;2.10;;;;;;;;;;5032290;28;20105;-61
2023/03/11 06:48:23;;;;;;;3.42;2.22;;;;;;;;;;5032306;28;20025;-61
2023/03/11 06:50:55;;;;;;;5.55;2.50;;;;;;;;;;5030650;28;20037;-61
2023/03/11 06:53:21;;;;;;;4.78;2.15;;;;;;;;;;5043098;28;20025;-61
2023/03/11 06:55:58;;;;;;;4.60;2.25;;;;;;;;;;5052187;28;20029;-61
2023/03/11 06:58:24;;;;;;;4.05;2.28;;;;;;;;;;5051719;28;20123;-61
2023/03/11 07:00:50;;;;;;;5.03;2.53;;;;;;;;;;5052118;28;20029;-61
2023/03/11 07:03:16;;;;;;;3.10;2.05;;;;;;;;;;5052191;28;20136;-60
2023/03/11 07:05:42;;;;;;;4.22;2.38;;;;;;;;;;5051965;28;20096;-61
2023/03/11 07:08:08;;;;;;;5.68;2.33;;;;;;;;;;5051807;28;20492;-61
2023/03/11 07:10:34;;;;;;;5.25;2.45;;;;;;;;;;5031996;28;20053;-61
2023/03/11 07:13:00;;;;;;;3.10;1.90;;;;;;;;;;5031741;28;20030;-61
2023/03/11 07:15:26;;;;;;;7.75;2.70;;;;;;;;;;5031726;28;20026;-61
2023/03/11 07:17:52;;;;;;;3.95;2.05;;;;;;;;;;5031561;28;20017;-61
2023/03/11 07:20:18;;;;;;;3.70;2.20;;;;;;;;;;5031784;28;20052;-60
2023/03/11 07:22:44;;;;;;;7.38;2.30;;;;;;;;;;5031017;28;20025;-61
2023/03/11 07:25:10;;;;;;;4.05;2.42;;;;;;;;;;5030192;28;20037;-61
2023/03/11 07:27:36;;;;;;;5.28;2.33;;;;;;;;;;5030619;28;20036;-60
2023/03/11 07:30:03;;;;;;;8.48;2.40;;;;;;;;;;5030866;28;20124;-61
2023/03/11 07:32:29;;;;;;;9.10;2.67;;;;;;;;;;5030912;28;20029;-61
2023/03/11 07:34:55;;;;;;;4.43;2.97;;;;;;;;;;5031171;28;20374;-61
2023/03/11 07:37:21;;;;;;;14.68;2.85;;;;;;;;;;5030892;28;20026;-61
2023/03/11 07:39:47;;;;;;;7.80;3.00;;;;;;;;;;5016122;28;20025;-61
2023/03/11 07:42:13;;;;;;;5.80;2.50;;;;;;;;;;5030705;28;20051;-61
2023/03/11 07:44:39;;;;;;;5.00;2.67;;;;;;;;;;5030782;28;20029;-62
2023/03/11 07:47:05;;;;;;;5.53;2.53;;;;;;;;;;5046422;28;20056;-61
2023/03/11 07:49:31;;;;;;;7.78;2.75;;;;;;;;;;5050933;28;20032;-60
2023/03/11 07:51:57;;;;;;;8.20;3.05;;;;;;;;;;5033988;28;20041;-62
2023/03/11 07:54:23;;;;;;;13.68;3.30;;;;;;;;;;5050674;28;20036;-61
2023/03/11 07:56:49;;;;;;;8.27;3.00;;;;;;;;;;5039455;28;20064;-61
2023/03/11 07:59:15;;;;;;;10.52;3.22;;;;;;;;;;5029907;28;20052;-62
2023/03/11 08:01:45;;;;;;;15.98;3.65;;;;;;;;;;5030302;28;20456;-62
2023/03/11 08:04:11;;;;;;;6.60;3.00;;;;;;;;;;5029548;28;20033;-61
2023/03/11 08:06:38;;;;;;;10.88;3.00;;;;;;;;;;5029432;28;20508;-63
2023/03/11 08:09:05;;;;;;;11.45;3.50;;;;;;;;;;5029340;28;20065;-65
2023/03/11 08:11:31;;;;;;;7.70;2.97;;;;;;;;;;5029070;28;20525;-70
2023/03/11 08:13:57;;;;;;;10.95;2.97;;;;;;;;;;5029465;28;20018;-69
2023/03/11 08:16:24;;;;;;;8.25;3.05;;;;;;;;;;5030125;28;20033;-70
2023/03/11 08:18:51;;;;;;;9.77;2.85;;;;;;;;;;5031570;28;20022;-70
2023/03/11 08:21:18;;;;;;;7.45;3.03;;;;;;;;;;5028795;28;20490;-68
2023/03/11 08:23:47;;;;;;;7.75;3.35;;;;;;;;;;5030422;28;20056;-74
2023/03/11 08:26:15;;;;;;;7.80;2.80;;;;;;;;;;5029647;28;20387;-68
2023/03/11 08:28:41;;;;;;;10.60;3.45;;;;;;;;;;5029860;28;20025;-71
2023/03/11 08:31:20;;;;;;;10.70;3.20;;;;;;;;;;5030177;28;20037;-64
2023/03/11 08:33:48;;;;;;;10.82;2.95;;;;;;;;;;5030957;28;20025;-69
2023/03/11 08:36:14;;;;;;;6.05;2.45;;;;;;;;;;5030196;28;20029;-67
2023/03/11 08:38:41;;;;;;;11.13;3.20;;;;;;;;;;5030216;28;20061;-68
2023/03/11 08:41:07;;;;;;;11.38;2.78;;;;;;;;;;5029138;28;20033;-67
2023/03/11 08:43:33;;;;;;;8.40;3.08;;;;;;;;;;5029879;28;20029;-61
2023/03/11 08:46:00;;;;;;;9.07;3.33;;;;;;;;;;5030342;28;20481;-62
2023/03/11 08:48:26;;;;;;;13.40;3.30;;;;;;;;;;5032531;28;20048;-63
2023/03/11 08:50:52;;;;;;;6.70;3.00;;;;;;;;;;5034260;28;20490;-65
2023/03/11 08:53:18;;;;;;;10.48;3.15;;;;;;;;;;5029181;28;20026;-65
2023/03/11 08:55:44;;;;;;;11.57;3.05;;;;;;;;;;5029159;28;20072;-65
2023/03/11 08:58:10;;;;;;;10.48;3.10;;;;;;;;;;5031080;28;20474;-64
2023/03/11 09:00:36;;;;;;;9.32;3.20;;;;;;;;;;5033990;28;20029;-63
2023/03/11 09:03:01;;;;;;;8.48;2.72;;;;;;;;;;5034533;28;20057;-64
2023/03/11 09:05:27;;;;;;;6.45;2.88;;;;;;;;;;5031154;28;20112;-64
2023/03/11 09:07:54;;;;;;;10.13;3.03;;;;;;;;;;5031424;28;20029;-65
2023/03/11 09:10:20;;;;;;;5.57;3.00;;;;;;;;;;5023867;28;20038;-65
2023/03/11 09:12:45;;;;;;;6.75;3.03;;;;;;;;;;5029345;28;20378;-64
2023/03/11 09:15:11;;;;;;;8.68;3.00;;;;;;;;;;5023756;28;20026;-65
2023/03/11 09:17:37;;;;;;;9.60;2.58;;;;;;;;;;5024233;28;20025;-65
2023/03/11 09:20:04;;;;;;;8.35;3.47;;;;;;;;;;5024273;28;20073;-64
2023/03/11 09:22:30;;;;;;;8.82;3.47;;;;;;;;;;5031180;28;20017;-65
2023/03/11 09:24:56;;;;;;;7.65;3.30;;;;;;;;;;5029296;28;20103;-66
2023/03/11 09:27:22;;;;;;;9.02;3.80;;;;;;;;;;5026378;28;20028;-65
2023/03/11 09:29:48;;;;;;;6.03;3.28;;;;;;;;;;5032432;28;20018;-65
2023/03/11 09:32:15;;;;;;;8.77;3.63;;;;;;;;;;5033476;28;20036;-61
2023/03/11 09:34:41;;;;;;;6.38;3.10;;;;;;;;;;5032790;28;20040;-55
2023/03/11 09:37:07;;;;;;;6.97;3.30;;;;;;;;;;5031564;28;20029;-56
2023/03/11 09:39:33;;;;;;;10.45;3.88;;;;;;;;;;5032503;28;20018;-60
2023/03/11 09:42:20;;;;;;;6.13;2.85;;;;;;;;;;5032775;28;20501;-59
2023/03/11 09:44:58;;;;;;;8.15;3.42;;;;;;;;;;5034688;28;20028;-60
2023/03/11 09:47:47;;;;;;;7.45;3.05;;;;;;;;;;5034043;28;20549;-61
2023/03/11 09:50:17;;;;;;;8.27;3.20;;;;;;;;;;5029059;28;20112;-57
2023/03/11 09:52:50;;;;;;;6.88;2.75;;;;;;;;;;5034207;28;20035;-59
2023/03/11 09:55:31;;;;;;;7.35;3.20;;;;;;;;;;5029368;28;20029;-59
2023/03/11 09:57:59;;;;;;;6.72;2.65;;;;;;;;;;5032041;28;20512;-60
2023/03/11 10:00:25;;;;;;;6.75;2.35;;;;;;;;;;5036512;28;20018;-58
2023/03/11 10:02:51;;;;;;;11.23;3.42;;;;;;;;;;5035461;28;20032;-58
2023/03/11 10:05:25;;;;;;;6.15;3.05;;;;;;;;;;5031013;28;20044;-60
2023/03/11 10:07:56;;;;;;;5.78;2.47;;;;;;;;;;5027992;28;20101;-60
2023/03/11 10:10:22;;;;;;;7.53;3.58;;;;;;;;;;5033340;28;20049;-56
2023/03/11 10:12:54;;;;;;;6.10;2.47;;;;;;;;;;5036043;28;20102;-59
2023/03/11 10:15:47;;;;;;;11.35;2.97;;;;;;;;;;5032253;28;20028;-64
2023/03/11 10:18:29;;;;;;;8.98;2.88;;;;;;;;;;5031531;28;20018;-61
2023/03/11 10:20:59;;;;;;;8.85;2.88;;;;;;;;;;5037022;28;20029;-61
2023/03/11 10:23:25;;;;;;;9.85;2.65;;;;;;;;;;5032800;28;20028;-61
2023/03/11 10:25:51;;;;;;;6.13;2.72;;;;;;;;;;5029450;28;20041;-61
2023/03/11 10:28:18;;;;;;;5.38;2.47;;;;;;;;;;5037134;28;20030;-61
2023/03/11 10:30:50;;;;;;;15.40;3.47;;;;;;;;;;5037556;28;20037;-61
2023/03/11 10:33:28;;;;;;;10.82;2.00;;;;;;;;;;5037199;28;20112;-61
2023/03/11 10:35:55;;;;;;;8.75;2.40;;;;;;;;;;5031654;28;20033;-61
2023/03/11 10:38:22;;;;;;;5.57;2.20;;;;;;;;;;5035762;28;20080;-62
2023/03/11 10:40:50;;;;;;;6.22;2.33;;;;;;;;;;5035670;28;20030;-61
2023/03/11 10:43:25;;;;;;;6.95;2.35;;;;;;;;;;5034734;28;20041;-62
2023/03/11 10:45:51;;;;;;;16.77;3.05;;;;;;;;;;5027154;28;20044;-61
2023/03/11 10:48:18;;;;;;;11.10;2.58;;;;;;;;;;5029109;28;20044;-57
2023/03/11 10:50:50;;;;;;;8.45;2.13;;;;;;;;;;5037401;28;20061;-60
2023/03/11 10:53:18;;;;;;;7.28;2.65;;;;;;;;;;5039398;28;20036;-60
2023/03/11 10:55:46;;;;;;;7.32;2.20;;;;;;;;;;5028034;28;20460;-61
2023/03/11 10:58:14;;;;;;;8.70;2.45;;;;;;;;;;5039508;28;20033;-60
2023/03/11 11:00:40;;;;;;;7.25;2.25;;;;;;;;;;5040491;28;20025;-60
2023/03/11 11:03:12;;;;;;;10.30;2.10;;;;;;;;;;5044618;28;20032;-61
2023/03/11 11:05:38;;;;;;;8.15;1.83;;;;;;;;;;5035350;28;20111;-60
2023/03/11 11:08:07;;;;;;;8.80;2.28;;;;;;;;;;5029757;28;20149;-61
2023/03/11 11:10:33;;;;;;;8.57;2.63;;;;;;;;;;5030114;28;20044;-59
2023/03/11 11:13:17;;;;;;;8.43;2.65;;;;;;;;;;5030651;28;20025;-60
2023/03/11 11:15:53;;;;;;;11.48;2.50;;;;;;;;;;5027333;28;20489;-60
2023/03/11 11:18:21;;;;;;;6.20;2.30;;;;;;;;;;5028937;28;20489;-60
2023/03/11 11:20:59;;;;;;;6.80;1.90;;;;;;;;;;5034724;28;20459;-60
2023/03/11 11:23:27;;;;;;;13.02;3.20;;;;;;;;;;5031668;28;20033;-62
2023/03/11 11:26:03;;;;;;;5.38;1.98;;;;;;;;;;5036841;28;20032;-60
2023/03/11 11:28:29;;;;;;;6.50;2.35;;;;;;;;;;5042413;28;20151;-60
2023/03/11 11:30:56;;;;;;;6.50;2.78;;;;;;;;;;5043307;28;20108;-60
2023/03/11 11:33:24;;;;;;;6.72;2.13;;;;;;;;;;5042886;28;20033;-59
2023/03/11 11:35:58;;;;;;;5.32;2.58;;;;;;;;;;5040456;28;20108;-70
2023/03/11 11:38:26;;;;;;;6.80;2.33;;;;;;;;;;5030839;28;20032;-64
2023/03/11 11:40:54;;;;;;;10.13;2.97;;;;;;;;;;5010363;28;20498;-63
2023/03/11 11:43:40;;;;;;;17.40;2.70;;;;;;;;;;5010743;28;20026;-63
2023/03/11 11:46:10;;;;;;;11.15;3.42;;;;;;;;;;5011696;28;20123;-64
2023/03/11 11:48:47;;;;;;;12.60;2.72;;;;;;;;;;5026567;28;20509;-63
2023/03/11 11:51:20;;;;;;;12.20;2.90;;;;;;;;;;5011028;28;20442;-60
2023/03/11 11:53:55;;;;;;;8.00;2.65;;;;;;;;;;5028253;28;20394;-58
2023/03/11 11:56:24;;;;;;;10.93;2.97;;;;;;;;;;5030837;28;20379;-58
2023/03/11 11:58:50;;;;;;;9.60;2.67;;;;;;;;;;5031368;28;20030;-64
2023/03/11 12:01:19;;;;;;;11.98;3.05;;;;;;;;;;5031010;28;20061;-68
2023/03/11 12:03:57;;;;;;;7.65;1.92;;;;;;;;;;5030257;28;20021;-67
2023/03/11 12:06:30;;;;;;;12.45;2.55;;;;;;;;;;5027349;28;20116;-65
2023/03/11 12:09:07;;;;;;;13.23;2.65;;;;;;;;;;5030555;28;20087;-64
2023/03/11 12:11:43;;;;;;;6.07;2.45;;;;;;;;;;5030389;28;20037;-65
2023/03/11 12:14:13;;;;;;;6.50;2.47;;;;;;;;;;5030551;28;20385;-65
2023/03/11 12:16:46;;;;;;;8.27;2.80;;;;;;;;;;5029708;28;20075;-69
2023/03/11 12:19:12;;;;;;;9.73;2.35;;;;;;;;;;5030315;28;20040;-66
2023/03/11 12:21:47;;;;;;;8.13;2.63;;;;;;;;;;5030132;28;20029;-66
2023/03/11 12:24:25;;;;;;;12.70;3.25;;;;;;;;;;5030094;28;20060;-67
2023/03/11 12:26:52;;;;;;;8.48;2.33;;;;;;;;;;5030750;28;20048;-66
2023/03/11 12:29:23;;;;;;;14.05;3.40;;;;;;;;;;5029403;28;20100;-66
2023/03/11 12:31:49;;;;;;;7.32;2.95;;;;;;;;;;5030100;28;20448;-66
2023/03/11 12:34:19;;;;;;;6.05;2.38;;;;;;;;;;5032649;28;20109;-66
2023/03/11 12:36:46;;;;;;;8.98;2.30;;;;;;;;;;5031272;28;20406;-68
2023/03/11 12:39:23;;;;;;;13.77;3.13;;;;;;;;;;5033187;28;20018;-62
2023/03/11 12:42:09;;;;;;;12.93;2.70;;;;;;;;;;5033726;28;20109;-66
2023/03/11 12:44:36;;;;;;;8.93;2.38;;;;;;;;;;5033859;28;20034;-66
2023/03/11 12:47:16;;;;;;;6.88;2.13;;;;;;;;;;5034706;28;20100;-67
2023/03/11 12:49:43;;;;;;;6.75;2.08;;;;;;;;;;5034558;28;20444;-62
2023/03/11 12:52:12;;;;;;;3.97;1.60;;;;;;;;;;5034349;28;20029;-63
2023/03/11 12:54:45;;;;;;;7.10;2.10;;;;;;;;;;5034383;28;20109;-63
2023/03/11 12:57:17;;;;;;;8.48;2.15;;;;;;;;;;5034318;28;20017;-64
2023/03/11 13:00:07;;;;;;;7.55;2.05;;;;;;;;;;5034440;28;20057;-63
2023/03/11 13:02:36;;;;;;;5.38;1.67;;;;;;;;;;5033958;28;20104;-63
2023/03/11 13:05:11;;;;;;;4.82;2.08;;;;;;;;;;5034153;28;20025;-62
2023/03/11 13:07:49;;;;;;;8.55;2.30;;;;;;;;;;5034270;28;20100;-63
2023/03/11 13:10:15;;;;;;;7.07;2.00;;;;;;;;;;5033570;28;20048;-63
2023/03/11 13:12:44;;;;;;;7.50;2.10;;;;;;;;;;5034122;28;20030;-63
2023/03/11 13:15:20;;;;;;;3.92;1.95;;;;;;;;;;5034145;28;20032;-63
2023/03/11 13:18:04;;;;;;;5.32;2.15;;;;;;;;;;5034076;28;20028;-62
2023/03/11 13:20:42;;;;;;;6.68;2.15;;;;;;;;;;5034120;28;20397;-63
2023/03/11 13:23:14;;;;;;;5.28;2.17;;;;;;;;;;5034033;28;20025;-63
2023/03/11 13:25:40;;;;;;;6.25;1.90;;;;;;;;;;5034075;28;20029;-63
2023/03/11 13:28:15;;;;;;;4.13;1.73;;;;;;;;;;5033846;28;20425;-63
2023/03/11 13:30:46;;;;;;;5.13;1.65;;;;;;;;;;5033876;28;20516;-63
2023/03/11 13:33:19;;;;;;;5.15;2.13;;;;;;;;;;5033497;28;20065;-62
2023/03/11 13:35:56;;;;;;;5.30;1.95;;;;;;;;;;5033898;28;20034;-64
2023/03/11 13:38:34;;;;;;;6.55;2.33;;;;;;;;;;5033517;28;20541;-65
2023/03/11 13:41:02;;;;;;;4.85;2.10;;;;;;;;;;5034091;28;20029;-65
2023/03/11 13:43:28;;;;;;;4.65;1.80;;;;;;;;;;5032719;28;20029;-63
2023/03/11 13:45:57;;;;;;;6.35;2.10;;;;;;;;;;5033688;28;20441;-63
2023/03/11 13:48:30;;;;;;;4.53;1.77;;;;;;;;;;5033394;28;20033;-65
2023/03/11 13:50:59;;;;;;;5.20;1.90;;;;;;;;;;5033416;28;20044;-63
2023/03/11 13:53:29;;;;;;;7.00;2.28;;;;;;;;;;5033304;28;20068;-63
2023/03/11 13:55:55;;;;;;;6.22;2.20;;;;;;;;;;5033381;28;20490;-65
2023/03/11 13:58:25;;;;;;;4.65;2.20;;;;;;;;;;5033110;28;20191;-63
2023/03/11 14:00:56;;;;;;;6.75;2.00;;;;;;;;;;5033310;28;20478;-62
2023/03/11 14:03:24;;;;;;;4.18;1.77;;;;;;;;;;5033049;28;20029;-62
2023/03/11 14:05:56;;;;;;;6.32;2.15;;;;;;;;;;5033072;28;20552;-63
2023/03/11 14:08:23;;;;;;;6.22;2.08;;;;;;;;;;5032791;28;20454;-62
2023/03/11 14:10:57;;;;;;;5.57;2.08;;;;;;;;;;5033045;28;20397;-62
2023/03/11 14:13:24;;;;;;;3.85;1.67;;;;;;;;;;5032230;28;20029;-62
2023/03/11 14:15:59;;;;;;;4.70;1.55;;;;;;;;;;5032499;28;20481;-62
2023/03/11 14:18:30;;;;;;;3.83;1.88;;;;;;;;;;5032935;28;20543;-62
2023/03/11 14:20:57;;;;;;;5.55;2.28;;;;;;;;;;5033030;28;20029;-65
2023/03/11 14:23:24;;;;;;;3.65;1.85;;;;;;;;;;5032846;28;20035;-62
2023/03/11 14:25:57;;;;;;;5.32;2.28;;;;;;;;;;5033036;28;20022;-62
2023/03/11 14:28:23;;;;;;;4.93;1.92;;;;;;;;;;5032674;28;20029;-62
2023/03/11 14:31:00;;;;;;;7.57;2.20;;;;;;;;;;5031696;28;20069;-62
2023/03/11 14:33:26;;;;;;;5.03;1.85;;;;;;;;;;5040572;28;20500;-63
2023/03/11 14:35:53;;;;;;;4.32;2.00;;;;;;;;;;5050983;28;20025;-65
2023/03/11 14:38:23;;;;;;;7.28;1.80;;;;;;;;;;5052338;28;20024;-68
2023/03/11 14:40:51;;;;;;;5.70;1.92;;;;;;;;;;5043264;28;20038;-65
2023/03/11 14:43:19;;;;;;;4.47;1.70;;;;;;;;;;5032453;28;20433;-64
2023/03/11 14:45:45;;;;;;;4.15;1.77;;;;;;;;;;5032171;28;20524;-63
2023/03/11 14:48:33;;;;;;;4.78;1.75;;;;;;;;;;5031173;28;20025;-62